createdAt,value
2019-04-18T00:00:43.693Z,64.72
2019-04-18T00:01:43.760Z,64.63
2019-04-18T00:02:44.414Z,64.63
2019-04-18T00:03:51.395Z,64.43
2019-04-18T00:04:43.855Z,64.34
2019-04-18T00:05:43.889Z,64.43
2019-04-18T00:06:43.927Z,64.43
2019-04-18T00:07:43.976Z,64.14
2019-04-18T00:08:44.063Z,64.43
2019-04-18T00:09:44.279Z,64.53
2019-04-18T00:10:44.070Z,64.63
2019-04-18T00:11:47.208Z,64.43
2019-04-18T00:12:44.084Z,64.43
2019-04-18T00:14:49.989Z,64.53
2019-04-18T00:15:44.227Z,64.63
2019-04-18T00:16:44.515Z,64.63
2019-04-18T00:17:44.305Z,64.53
2019-04-18T00:18:44.283Z,64.92
2019-04-18T00:19:46.490Z,64.92
2019-04-18T00:20:44.836Z,64.72
2019-04-18T00:21:44.382Z,64.92
2019-04-18T00:22:44.415Z,64.53
2019-04-18T00:23:44.746Z,64.63
2019-04-18T00:24:44.536Z,64.82
2019-04-18T00:25:44.573Z,64.82
2019-04-18T00:26:44.887Z,63.37
2019-04-18T00:27:45.095Z,60.47
2019-04-18T00:29:44.652Z,58.73
2019-04-18T00:30:44.996Z,59.86
2019-04-18T00:31:44.725Z,58.90
2019-04-18T00:32:45.770Z,59.09
2019-04-18T00:33:47.433Z,59.67
2019-04-18T00:34:44.875Z,59.67
2019-04-18T00:35:44.852Z,59.86
2019-04-18T00:36:47.254Z,59.09
2019-04-18T00:37:44.971Z,59.28
2019-04-18T00:38:45.006Z,59.77
2019-04-18T00:39:44.987Z,59.58
2019-04-18T00:41:46.206Z,59.06
2019-04-18T00:42:45.437Z,59.35
2019-04-18T00:43:45.174Z,59.35
2019-04-18T00:44:45.160Z,59.64
2019-04-18T00:45:45.242Z,59.83
2019-04-18T00:46:46.040Z,60.13
2019-04-18T00:47:45.304Z,59.93
2019-04-18T00:50:45.652Z,60.03
2019-04-18T00:52:46.076Z,59.45
2019-04-18T00:53:45.516Z,59.93
2019-04-18T00:54:45.489Z,59.71
2019-04-18T00:55:45.519Z,60.19
2019-04-18T00:56:45.853Z,60.48
2019-04-18T00:57:47.351Z,60.10
2019-04-18T00:58:48.029Z,59.45
2019-04-18T00:59:45.723Z,59.42
2019-04-18T01:00:45.702Z,59.42
2019-04-18T01:01:46.246Z,59.90
2019-04-18T01:02:51.301Z,59.52
2019-04-18T01:03:45.811Z,59.32
2019-04-18T01:04:45.877Z,59.42
2019-04-18T01:05:45.859Z,59.52
2019-04-18T01:06:48.939Z,59.52
2019-04-18T01:07:45.973Z,59.61
2019-04-18T01:08:45.963Z,59.42
2019-04-18T01:09:46.335Z,59.42
2019-04-18T01:10:46.083Z,59.03
2019-04-18T01:11:46.121Z,58.84
2019-04-18T01:12:46.082Z,58.84
2019-04-18T01:13:46.165Z,59.80
2019-04-18T01:14:49.481Z,59.03
2019-04-18T01:15:46.182Z,59.03
2019-04-18T01:16:46.599Z,58.81
2019-04-18T01:17:46.272Z,59.68
2019-04-18T01:18:47.554Z,58.72
2019-04-18T01:19:46.312Z,59.10
2019-04-18T01:20:46.402Z,58.62
2019-04-18T01:21:46.388Z,58.72
2019-04-18T01:22:48.940Z,58.81
2019-04-18T01:23:46.751Z,58.52
2019-04-18T01:24:46.485Z,58.14
2019-04-18T01:25:46.562Z,57.75
2019-04-18T01:26:47.087Z,57.56
2019-04-18T01:27:46.646Z,57.56
2019-04-18T01:28:46.664Z,57.85
2019-04-18T01:29:46.719Z,57.07
2019-04-18T01:30:46.975Z,57.56
2019-04-18T01:31:46.767Z,57.46
2019-04-18T01:32:46.795Z,57.37
2019-04-18T01:33:46.778Z,56.88
2019-04-18T01:34:49.076Z,57.27
2019-04-18T01:35:46.843Z,57.46
2019-04-18T01:36:46.877Z,57.07
2019-04-18T01:37:47.260Z,56.88
2019-04-18T01:38:46.992Z,57.17
2019-04-18T01:39:47.803Z,57.07
2019-04-18T01:40:49.100Z,57.07
2019-04-18T01:41:47.088Z,56.98
2019-04-18T01:42:47.072Z,56.69
2019-04-18T01:43:47.156Z,56.88
2019-04-18T01:44:47.622Z,56.69
2019-04-18T01:45:47.955Z,56.88
2019-04-18T01:46:47.251Z,57.07
2019-04-18T01:47:47.234Z,57.07
2019-04-18T01:48:47.312Z,57.07
2019-04-18T01:49:47.378Z,57.43
2019-04-18T01:50:49.620Z,56.85
2019-04-18T01:51:47.745Z,57.05
2019-04-18T01:52:47.391Z,57.05
2019-04-18T01:53:47.483Z,57.14
2019-04-18T01:54:47.457Z,57.43
2019-04-18T01:55:47.957Z,56.95
2019-04-18T01:56:47.523Z,57.07
2019-04-18T01:57:47.612Z,57.05
2019-04-18T01:58:47.888Z,56.95
2019-04-18T01:59:47.628Z,57.05
2019-04-18T02:00:48.385Z,57.34
2019-04-18T02:01:47.700Z,57.24
2019-04-18T02:02:47.717Z,56.76
2019-04-18T02:05:00.803Z,56.95
2019-04-18T02:05:48.177Z,57.14
2019-04-18T02:06:47.926Z,57.14
2019-04-18T02:07:47.951Z,57.14
2019-04-18T02:08:51.210Z,56.66
2019-04-18T02:09:47.955Z,57.14
2019-04-18T02:10:48.026Z,57.34
2019-04-18T02:11:48.010Z,56.95
2019-04-18T02:12:48.354Z,56.66
2019-04-18T02:13:49.010Z,56.66
2019-04-18T02:14:48.158Z,57.05
2019-04-18T02:15:48.144Z,56.85
2019-04-18T02:16:48.329Z,56.95
2019-04-18T02:17:49.873Z,57.14
2019-04-18T02:19:48.573Z,57.05
2019-04-18T02:20:48.307Z,57.24
2019-04-18T02:21:48.383Z,57.43
2019-04-18T02:22:49.153Z,57.05
2019-04-18T02:23:48.402Z,57.05
2019-04-18T02:24:48.487Z,56.95
2019-04-18T02:26:49.490Z,57.34
2019-04-18T02:27:48.585Z,57.05
2019-04-18T02:28:48.560Z,57.14
2019-04-18T02:29:48.640Z,57.21
2019-04-18T02:30:56.297Z,57.34
2019-04-18T02:31:49.012Z,57.14
2019-04-18T02:32:48.695Z,57.53
2019-04-18T02:33:48.781Z,57.24
2019-04-18T02:34:51.915Z,57.34
2019-04-18T02:35:48.795Z,57.40
2019-04-18T02:36:48.891Z,57.02
2019-04-18T02:37:49.173Z,57.12
2019-04-18T02:38:49.614Z,56.92
2019-04-18T02:39:48.924Z,57.14
2019-04-18T02:40:48.955Z,56.95
2019-04-18T02:41:49.044Z,56.73
2019-04-18T02:42:50.116Z,56.95
2019-04-18T02:43:51.091Z,56.66
2019-04-18T02:44:49.384Z,56.76
2019-04-18T02:45:49.110Z,57.12
2019-04-18T02:46:49.200Z,57.12
2019-04-18T02:47:52.666Z,56.82
2019-04-18T02:48:49.209Z,56.63
2019-04-18T02:49:49.290Z,56.82
2019-04-18T02:50:49.421Z,56.73
2019-04-18T02:51:51.124Z,56.82
2019-04-18T02:52:49.379Z,56.73
2019-04-18T02:53:49.414Z,56.54
2019-04-18T02:54:49.446Z,56.25
2019-04-18T02:55:51.250Z,56.54
2019-04-18T02:56:49.514Z,56.05
2019-04-18T02:57:49.550Z,56.05
2019-04-18T02:58:49.894Z,56.92
2019-04-18T02:59:50.279Z,56.82
2019-04-18T03:00:52.760Z,56.44
2019-04-18T03:01:49.623Z,56.15
2019-04-18T03:02:49.651Z,56.05
2019-04-18T03:03:49.743Z,56.25
2019-04-18T03:04:52.639Z,56.35
2019-04-18T03:05:50.176Z,56.05
2019-04-18T03:06:49.789Z,56.35
2019-04-18T03:07:51.994Z,55.96
2019-04-18T03:08:49.899Z,56.05
2019-04-18T03:09:49.875Z,56.25
2019-04-18T03:10:49.907Z,56.05
2019-04-18T03:11:51.818Z,56.35
2019-04-18T03:12:50.293Z,55.57
2019-04-18T03:14:50.034Z,56.25
2019-04-18T03:15:51.857Z,55.96
2019-04-18T03:16:50.099Z,55.96
2019-04-18T03:17:50.195Z,55.96
2019-04-18T03:18:50.217Z,55.96
2019-04-18T03:19:50.508Z,55.87
2019-04-18T03:21:50.313Z,55.87
2019-04-18T03:22:50.340Z,56.15
2019-04-18T03:23:50.377Z,56.15
2019-04-18T03:24:50.551Z,55.96
2019-04-18T03:25:51.888Z,56.05
2019-04-18T03:26:50.774Z,56.15
2019-04-18T03:27:50.455Z,56.05
2019-04-18T03:28:50.540Z,55.87
2019-04-18T03:29:52.658Z,55.87
2019-04-18T03:30:50.603Z,55.96
2019-04-18T03:31:58.184Z,55.57
2019-04-18T03:32:50.613Z,56.15
2019-04-18T03:33:50.943Z,56.35
2019-04-18T03:34:50.734Z,56.05
2019-04-18T03:35:53.347Z,56.25
2019-04-18T03:37:50.822Z,55.87
2019-04-18T03:38:50.805Z,56.05
2019-04-18T03:39:51.470Z,55.96
2019-04-18T03:40:51.173Z,56.03
2019-04-18T03:41:50.948Z,56.22
2019-04-18T03:42:50.933Z,56.12
2019-04-18T03:43:50.962Z,56.03
2019-04-18T03:44:51.052Z,56.12
2019-04-18T03:45:55.158Z,55.93
2019-04-18T03:46:51.110Z,56.32
2019-04-18T03:47:51.608Z,56.12
2019-04-18T03:48:51.118Z,55.65
2019-04-18T03:49:51.198Z,56.03
2019-04-18T03:50:51.775Z,55.65
2019-04-18T03:51:52.770Z,55.67
2019-04-18T03:52:51.316Z,56.03
2019-04-18T03:53:51.433Z,56.03
2019-04-18T03:54:51.635Z,55.93
2019-04-18T03:55:56.005Z,55.65
2019-04-18T03:56:51.373Z,56.12
2019-04-18T03:57:51.408Z,55.74
2019-04-18T03:58:51.489Z,55.83
2019-04-18T03:59:52.224Z,56.90
2019-04-18T04:00:57.318Z,59.30
2019-04-18T04:01:51.834Z,60.27
2019-04-18T04:03:51.646Z,61.04
2019-04-18T04:04:54.629Z,61.61
2019-04-18T04:06:03.845Z,61.35
2019-04-18T04:06:52.516Z,61.35
2019-04-18T04:07:55.093Z,61.93
2019-04-18T04:08:51.805Z,61.45
2019-04-18T04:09:51.874Z,61.45
2019-04-18T04:10:51.819Z,61.35
2019-04-18T04:11:54.787Z,61.83
2019-04-18T04:12:51.887Z,61.65
2019-04-18T04:13:52.259Z,62.22
2019-04-18T04:14:51.988Z,62.32
2019-04-18T04:15:52.022Z,62.32
2019-04-18T04:16:53.178Z,62.03
2019-04-18T04:17:52.055Z,62.22
2019-04-18T04:18:52.078Z,62.22
2019-04-18T04:19:53.896Z,61.83
2019-04-18T04:20:55.063Z,61.93
2019-04-18T04:21:52.213Z,62.12
2019-04-18T04:22:52.200Z,61.77
2019-04-18T04:23:52.241Z,62.12
2019-04-18T04:24:52.270Z,62.15
2019-04-18T04:25:52.350Z,62.32
2019-04-18T04:26:52.384Z,62.54
2019-04-18T04:27:54.661Z,62.63
2019-04-18T04:28:52.392Z,62.73
2019-04-18T04:30:52.467Z,62.35
2019-04-18T04:31:56.205Z,62.54
2019-04-18T04:32:52.831Z,62.45
2019-04-18T04:33:52.611Z,62.25
2019-04-18T04:34:52.639Z,62.35
2019-04-18T04:35:59.305Z,62.73
2019-04-18T04:36:52.652Z,62.63
2019-04-18T04:37:52.673Z,62.54
2019-04-18T04:38:53.014Z,62.54
2019-04-18T04:39:53.318Z,62.54
2019-04-18T04:40:52.788Z,62.45
2019-04-18T04:42:52.844Z,62.45
2019-04-18T04:43:54.716Z,62.45
2019-04-18T04:44:52.903Z,62.35
2019-04-18T04:45:52.980Z,62.35
2019-04-18T04:46:52.970Z,62.25
2019-04-18T04:47:53.000Z,62.25
2019-04-18T04:48:54.972Z,62.45
2019-04-18T04:49:53.131Z,62.25
2019-04-18T04:50:53.099Z,62.45
2019-04-18T04:51:55.067Z,62.25
2019-04-18T04:52:56.083Z,62.63
2019-04-18T04:53:53.240Z,62.63
2019-04-18T04:54:53.270Z,62.73
2019-04-18T04:55:53.251Z,62.54
2019-04-18T04:56:53.341Z,62.63
2019-04-18T04:57:55.223Z,62.54
2019-04-18T04:58:53.361Z,62.63
2019-04-18T04:59:53.433Z,62.63
2019-04-18T05:00:56.726Z,62.54
2019-04-18T05:01:57.309Z,62.54
2019-04-18T05:02:53.525Z,62.45
2019-04-18T05:03:53.563Z,62.25
2019-04-18T05:04:54.663Z,63.12
2019-04-18T05:05:53.621Z,62.83
2019-04-18T05:07:56.979Z,63.12
2019-04-18T05:08:53.734Z,62.73
2019-04-18T05:09:53.749Z,63.21
2019-04-18T05:10:54.087Z,62.73
2019-04-18T05:11:54.672Z,62.73
2019-04-18T05:12:53.796Z,62.93
2019-04-18T05:13:53.886Z,62.93
2019-04-18T05:14:53.914Z,62.93
2019-04-18T05:15:54.622Z,62.73
2019-04-18T05:16:54.020Z,62.93
2019-04-18T05:17:54.313Z,62.93
2019-04-18T05:18:54.001Z,62.83
2019-04-18T05:20:54.113Z,63.50
2019-04-18T05:21:54.141Z,63.21
2019-04-18T05:22:54.947Z,63.21
2019-04-18T05:23:54.156Z,63.06
2019-04-18T05:24:54.554Z,63.21
2019-04-18T05:25:54.280Z,63.21
2019-04-18T05:26:54.315Z,63.02
2019-04-18T05:27:55.238Z,63.15
2019-04-18T05:28:54.312Z,63.31
2019-04-18T05:29:54.355Z,63.31
2019-04-18T05:30:54.389Z,63.12
2019-04-18T05:31:55.254Z,63.12
2019-04-18T05:32:54.444Z,63.21
2019-04-18T05:33:54.542Z,63.44
2019-04-18T05:34:54.505Z,63.24
2019-04-18T05:36:00.867Z,62.96
2019-04-18T05:36:56.896Z,62.93
2019-04-18T05:37:54.920Z,63.12
2019-04-18T05:38:57.542Z,63.06
2019-04-18T05:39:54.676Z,63.06
2019-04-18T05:40:54.754Z,63.24
2019-04-18T05:41:57.023Z,63.06
2019-04-18T05:42:54.827Z,63.06
2019-04-18T05:43:55.235Z,62.86
2019-04-18T05:46:55.243Z,63.15
2019-04-18T05:47:54.929Z,63.24
2019-04-18T05:48:54.996Z,63.06
2019-04-18T05:49:55.049Z,63.06
2019-04-18T05:50:55.031Z,63.06
2019-04-18T05:51:55.116Z,63.06
2019-04-18T05:52:56.085Z,63.06
2019-04-18T05:53:55.570Z,63.06
2019-04-18T05:54:55.161Z,63.24
2019-04-18T05:55:55.695Z,63.34
2019-04-18T05:56:57.926Z,63.24
2019-04-18T05:57:55.355Z,63.24
2019-04-18T05:58:55.334Z,63.34
2019-04-18T06:00:55.421Z,63.24
2019-04-18T06:02:55.462Z,63.92
2019-04-18T06:03:57.184Z,63.73
2019-04-18T06:04:55.537Z,63.54
2019-04-18T06:05:55.565Z,63.24
2019-04-18T06:07:10.914Z,63.44
2019-04-18T06:07:55.905Z,62.96
2019-04-18T06:08:55.660Z,62.96
2019-04-18T06:09:55.643Z,63.24
2019-04-18T06:10:55.683Z,63.15
2019-04-18T06:11:58.509Z,62.86
2019-04-18T06:12:55.748Z,63.06
2019-04-18T06:13:56.069Z,63.15
2019-04-18T06:14:55.805Z,62.96
2019-04-18T06:15:56.547Z,63.44
2019-04-18T06:16:59.099Z,63.34
2019-04-18T06:17:55.958Z,63.34
2019-04-18T06:18:55.934Z,63.24
2019-04-18T06:19:56.020Z,63.06
2019-04-18T06:20:59.229Z,62.86
2019-04-18T06:21:56.082Z,62.86
2019-04-18T06:22:56.130Z,63.06
2019-04-18T06:23:56.968Z,63.15
2019-04-18T06:24:56.194Z,63.06
2019-04-18T06:25:56.285Z,63.24
2019-04-18T06:26:56.246Z,63.06
2019-04-18T06:27:56.228Z,63.24
2019-04-18T06:28:56.264Z,63.34
2019-04-18T06:29:56.343Z,63.34
2019-04-18T06:31:56.406Z,63.44
2019-04-18T06:32:57.091Z,63.06
2019-04-18T06:33:56.723Z,63.09
2019-04-18T06:34:56.503Z,62.86
2019-04-18T06:35:56.552Z,62.86
2019-04-18T06:36:58.816Z,62.96
2019-04-18T06:37:56.606Z,62.86
2019-04-18T06:38:56.634Z,62.96
2019-04-18T06:39:57.529Z,62.96
2019-04-18T06:42:56.761Z,62.86
2019-04-18T06:43:57.286Z,63.28
2019-04-18T06:44:56.792Z,62.41
2019-04-18T06:46:57.160Z,62.51
2019-04-18T06:47:56.881Z,62.51
2019-04-18T06:48:56.910Z,62.70
2019-04-18T06:49:56.993Z,62.31
2019-04-18T06:50:58.228Z,62.60
2019-04-18T06:51:59.725Z,62.79
2019-04-18T06:52:57.048Z,62.51
2019-04-18T06:53:57.237Z,62.31
2019-04-18T06:54:59.308Z,62.41
2019-04-18T06:55:57.141Z,62.51
2019-04-18T06:56:57.523Z,62.41
2019-04-18T06:57:59.105Z,62.70
2019-04-18T06:59:57.622Z,62.51
2019-04-18T07:01:57.382Z,62.70
2019-04-18T07:02:57.414Z,62.41
2019-04-18T07:04:58.008Z,62.31
2019-04-18T07:06:00.295Z,62.41
2019-04-18T07:06:57.870Z,62.41
2019-04-18T07:07:59.032Z,62.31
2019-04-18T07:08:59.629Z,62.70
2019-04-18T07:09:57.594Z,62.51
2019-04-18T07:11:03.476Z,62.60
2019-04-18T07:11:57.753Z,62.22
2019-04-18T07:12:57.744Z,62.41
2019-04-18T07:13:57.794Z,62.22
2019-04-18T07:15:00.843Z,62.31
2019-04-18T07:15:57.796Z,62.22
2019-04-18T07:16:57.820Z,61.83
2019-04-18T07:17:57.911Z,61.93
2019-04-18T07:19:00.545Z,62.12
2019-04-18T07:19:58.275Z,62.12
2019-04-18T07:20:58.010Z,62.02
2019-04-18T07:22:00.720Z,61.93
2019-04-18T07:22:58.025Z,62.31
2019-04-18T07:24:00.271Z,62.31
2019-04-18T07:24:58.092Z,62.31
2019-04-18T07:25:58.174Z,62.41
2019-04-18T07:26:58.157Z,62.31
2019-04-18T07:28:01.144Z,62.41
2019-04-18T07:28:58.801Z,62.51
2019-04-18T07:29:58.311Z,62.31
2019-04-18T07:30:58.279Z,62.25
2019-04-18T07:31:58.380Z,61.74
2019-04-18T07:32:58.653Z,61.77
2019-04-18T07:33:58.441Z,62.02
2019-04-18T07:34:58.472Z,61.74
2019-04-18T07:35:58.450Z,61.77
2019-04-18T07:36:58.490Z,61.93
2019-04-18T07:37:58.562Z,61.96
2019-04-18T07:39:01.017Z,61.96
2019-04-18T07:39:58.596Z,61.38
2019-04-18T07:40:58.621Z,61.77
2019-04-18T07:41:58.694Z,61.57
2019-04-18T07:42:58.683Z,61.57
2019-04-18T07:43:58.758Z,61.77
2019-04-18T07:44:58.778Z,61.47
2019-04-18T07:45:58.843Z,61.77
2019-04-18T07:47:03.790Z,61.67
2019-04-18T07:47:58.901Z,61.86
2019-04-18T07:48:58.884Z,61.47
2019-04-18T07:50:58.947Z,61.96
2019-04-18T07:51:59.327Z,61.96
2019-04-18T07:52:59.055Z,61.86
2019-04-18T07:53:59.094Z,61.47
2019-04-18T07:54:59.091Z,61.67
2019-04-18T07:55:59.168Z,61.38
2019-04-18T07:56:59.143Z,61.47
2019-04-18T07:57:59.239Z,61.67
2019-04-18T07:59:06.216Z,61.67
2019-04-18T07:59:59.295Z,61.47
2019-04-18T08:00:59.325Z,61.47
2019-04-18T08:02:00.943Z,61.47
2019-04-18T08:02:59.390Z,61.47
2019-04-18T08:04:12.284Z,61.47
2019-04-18T08:04:59.413Z,61.77
2019-04-18T08:05:59.491Z,61.77
2019-04-18T08:06:59.520Z,61.77
2019-04-18T08:07:59.557Z,61.77
2019-04-18T08:08:59.534Z,61.77
2019-04-18T08:09:59.870Z,61.77
2019-04-18T08:10:59.649Z,61.96
2019-04-18T08:11:59.688Z,61.77
2019-04-18T08:12:59.672Z,61.38
2019-04-18T08:13:59.758Z,61.38
2019-04-18T08:15:59.827Z,61.38
2019-04-18T08:16:59.804Z,61.57
2019-04-18T08:17:59.843Z,61.47
2019-04-18T08:18:59.921Z,61.28
2019-04-18T08:19:59.909Z,61.47
2019-04-18T08:22:00.018Z,61.38
2019-04-18T08:23:00.301Z,61.38
2019-04-18T08:24:00.036Z,61.47
2019-04-18T08:25:00.070Z,61.19
2019-04-18T08:26:00.164Z,61.19
2019-04-18T08:27:03.345Z,61.28
2019-04-18T08:28:00.214Z,61.19
2019-04-18T08:29:01.980Z,61.47
2019-04-18T08:30:00.283Z,61.47
2019-04-18T08:31:02.051Z,61.38
2019-04-18T08:32:00.378Z,61.60
2019-04-18T08:34:00.421Z,61.51
2019-04-18T08:35:00.710Z,61.41
2019-04-18T08:36:00.463Z,61.38
2019-04-18T08:37:00.464Z,61.38
2019-04-18T08:38:00.553Z,61.38
2019-04-18T08:39:00.541Z,61.51
2019-04-18T08:40:00.568Z,61.22
2019-04-18T08:41:00.606Z,61.19
2019-04-18T08:42:01.069Z,61.47
2019-04-18T08:43:03.092Z,61.41
2019-04-18T08:44:00.703Z,61.47
2019-04-18T08:45:00.743Z,61.70
2019-04-18T08:46:01.752Z,61.41
2019-04-18T08:47:00.805Z,61.38
2019-04-18T08:48:01.188Z,61.67
2019-04-18T08:49:03.396Z,61.41
2019-04-18T08:50:02.239Z,61.77
2019-04-18T08:51:00.983Z,61.38
2019-04-18T08:52:01.029Z,61.28
2019-04-18T08:53:01.004Z,61.41
2019-04-18T08:54:01.091Z,61.80
2019-04-18T08:55:01.073Z,61.77
2019-04-18T08:56:01.907Z,61.57
2019-04-18T08:57:01.193Z,61.80
2019-04-18T08:58:01.173Z,61.70
2019-04-18T08:59:01.202Z,61.57
2019-04-18T09:01:01.317Z,61.41
2019-04-18T09:02:01.441Z,61.47
2019-04-18T09:03:01.392Z,61.80
2019-04-18T09:04:01.480Z,61.38
2019-04-18T09:05:16.646Z,61.77
2019-04-18T09:06:02.087Z,61.77
2019-04-18T09:07:01.758Z,61.80
2019-04-18T09:08:03.749Z,61.70
2019-04-18T09:09:01.770Z,61.60
2019-04-18T09:10:06.706Z,61.38
2019-04-18T09:11:01.976Z,61.80
2019-04-18T09:12:03.865Z,61.41
2019-04-18T09:13:02.216Z,61.41
2019-04-18T09:14:05.458Z,61.41
2019-04-18T09:15:02.318Z,61.31
2019-04-18T09:16:02.862Z,61.41
2019-04-18T09:18:02.911Z,60.93
2019-04-18T09:19:02.700Z,61.02
2019-04-18T09:20:11.571Z,61.12
2019-04-18T09:21:06.359Z,61.02
2019-04-18T09:22:02.294Z,60.83
2019-04-18T09:23:06.413Z,60.93
2019-04-18T09:24:02.484Z,60.93
2019-04-18T09:25:03.194Z,60.73
2019-04-18T09:26:03.479Z,60.93
2019-04-18T09:27:02.235Z,60.83
2019-04-18T09:28:04.357Z,60.83
2019-04-18T09:29:02.304Z,60.93
2019-04-18T09:30:05.770Z,60.93
2019-04-18T09:32:02.438Z,60.93
2019-04-18T09:33:02.406Z,60.83
2019-04-18T09:34:06.392Z,61.02
2019-04-18T09:35:03.244Z,60.83
2019-04-18T09:36:02.469Z,60.73
2019-04-18T09:37:06.445Z,60.83
2019-04-18T09:38:02.572Z,60.83
2019-04-18T09:39:02.594Z,60.73
2019-04-18T09:40:02.633Z,60.93
2019-04-18T09:41:02.620Z,60.93
2019-04-18T09:42:04.760Z,60.83
2019-04-18T09:43:02.738Z,60.83
2019-04-18T09:44:02.722Z,60.93
2019-04-18T09:46:05.163Z,60.93
2019-04-18T09:47:02.868Z,60.54
2019-04-18T09:48:02.909Z,60.35
2019-04-18T09:49:03.819Z,60.35
2019-04-18T09:50:02.975Z,60.35
2019-04-18T09:51:03.149Z,60.83
2019-04-18T09:52:03.059Z,60.44
2019-04-18T09:53:03.028Z,60.44
2019-04-18T09:54:03.110Z,60.35
2019-04-18T09:55:03.091Z,60.44
2019-04-18T09:56:03.186Z,60.54
2019-04-18T09:57:03.509Z,60.54
2019-04-18T09:58:03.369Z,60.44
2019-04-18T09:59:03.220Z,60.54
2019-04-18T10:00:10.952Z,60.54
2019-04-18T10:01:03.352Z,60.54
2019-04-18T10:02:03.385Z,60.44
2019-04-18T10:03:03.662Z,60.44
2019-04-18T10:04:06.691Z,60.44
2019-04-18T10:05:03.435Z,60.54
2019-04-18T10:06:03.515Z,60.25
2019-04-18T10:08:03.584Z,60.25
2019-04-18T10:09:03.968Z,60.25
2019-04-18T10:10:03.658Z,60.44
2019-04-18T10:11:03.784Z,60.35
2019-04-18T10:12:07.265Z,60.25
2019-04-18T10:13:03.694Z,60.35
2019-04-18T10:14:04.941Z,60.44
2019-04-18T10:15:13.181Z,60.44
2019-04-18T10:16:05.980Z,60.25
2019-04-18T10:17:03.987Z,60.25
2019-04-18T10:18:03.932Z,60.44
2019-04-18T10:19:03.904Z,60.16
2019-04-18T10:20:03.932Z,60.35
2019-04-18T10:21:04.024Z,60.18
2019-04-18T10:22:04.060Z,60.35
2019-04-18T10:23:04.091Z,60.25
2019-04-18T10:24:04.122Z,60.35
2019-04-18T10:25:04.251Z,60.35
2019-04-18T10:26:04.233Z,60.18
2019-04-18T10:27:04.226Z,60.38
2019-04-18T10:28:04.273Z,60.38
2019-04-18T10:29:04.396Z,60.35
2019-04-18T10:30:04.336Z,60.35
2019-04-18T10:31:04.319Z,60.54
2019-04-18T10:32:04.392Z,60.54
2019-04-18T10:33:04.380Z,60.54
2019-04-18T10:34:04.463Z,60.57
2019-04-18T10:35:04.545Z,60.44
2019-04-18T10:36:05.359Z,60.54
2019-04-18T10:37:04.518Z,60.38
2019-04-18T10:38:07.529Z,60.54
2019-04-18T10:39:05.353Z,60.57
2019-04-18T10:40:04.612Z,60.54
2019-04-18T10:41:05.429Z,60.35
2019-04-18T10:42:05.485Z,60.35
2019-04-18T10:43:04.716Z,60.54
2019-04-18T10:44:05.489Z,60.57
2019-04-18T10:45:04.870Z,60.57
2019-04-18T10:46:04.823Z,60.38
2019-04-18T10:47:04.903Z,60.57
2019-04-18T10:48:04.938Z,60.38
2019-04-18T10:49:05.404Z,60.38
2019-04-18T10:50:05.195Z,60.38
2019-04-18T10:51:04.993Z,60.38
2019-04-18T10:52:05.478Z,60.28
2019-04-18T10:53:05.147Z,60.38
2019-04-18T10:54:05.153Z,60.38
2019-04-18T10:55:05.589Z,60.47
2019-04-18T10:56:05.855Z,60.38
2019-04-18T10:57:05.347Z,60.38
2019-04-18T10:58:05.739Z,60.28
2019-04-18T10:59:05.678Z,60.57
2019-04-18T11:00:05.543Z,60.67
2019-04-18T11:01:06.224Z,60.28
2019-04-18T11:02:05.427Z,60.28
2019-04-18T11:03:05.454Z,60.28
2019-04-18T11:04:15.485Z,60.28
2019-04-18T11:05:05.660Z,60.67
2019-04-18T11:06:18.692Z,60.57
2019-04-18T11:07:05.871Z,60.28
2019-04-18T11:08:05.624Z,60.67
2019-04-18T11:09:05.608Z,60.67
2019-04-18T11:10:06.092Z,60.67
2019-04-18T11:11:06.089Z,60.67
2019-04-18T11:12:05.710Z,60.67
2019-04-18T11:13:05.756Z,60.57
2019-04-18T11:14:05.826Z,60.67
2019-04-18T11:15:06.256Z,60.57
2019-04-18T11:16:05.895Z,60.38
2019-04-18T11:17:06.037Z,60.57
2019-04-18T11:18:07.209Z,60.38
2019-04-18T11:19:06.100Z,60.38
2019-04-18T11:20:05.983Z,60.38
2019-04-18T11:22:06.418Z,59.99
2019-04-18T11:23:06.635Z,60.09
2019-04-18T11:24:06.179Z,60.38
2019-04-18T11:25:06.171Z,60.18
2019-04-18T11:26:06.271Z,60.09
2019-04-18T11:27:06.289Z,60.28
2019-04-18T11:28:06.315Z,60.38
2019-04-18T11:29:06.302Z,60.09
2019-04-18T11:30:06.384Z,60.38
2019-04-18T11:31:06.448Z,59.99
2019-04-18T11:32:06.451Z,60.09
2019-04-18T11:33:06.586Z,60.18
2019-04-18T11:34:07.208Z,60.18
2019-04-18T11:35:06.855Z,60.18
2019-04-18T11:36:06.591Z,60.28
2019-04-18T11:37:06.818Z,60.18
2019-04-18T11:39:07.210Z,60.09
2019-04-18T11:40:06.667Z,60.28
2019-04-18T11:41:06.830Z,60.28
2019-04-18T11:42:07.090Z,60.28
2019-04-18T11:43:08.038Z,60.38
2019-04-18T11:44:06.809Z,60.09
2019-04-18T11:45:06.851Z,60.28
2019-04-18T11:46:07.404Z,60.09
2019-04-18T11:47:06.916Z,60.38
2019-04-18T11:48:06.998Z,60.28
2019-04-18T11:49:07.032Z,60.28
2019-04-18T11:51:07.052Z,60.28
2019-04-18T11:52:07.087Z,60.18
2019-04-18T11:53:07.166Z,60.28
2019-04-18T11:54:07.205Z,60.38
2019-04-18T11:55:07.841Z,60.28
2019-04-18T11:56:13.407Z,60.28
2019-04-18T11:57:07.864Z,60.18
2019-04-18T11:58:07.439Z,60.09
2019-04-18T11:59:07.373Z,60.38
2019-04-18T12:01:17.694Z,60.28
2019-04-18T12:02:08.870Z,60.47
2019-04-18T12:03:07.459Z,60.38
2019-04-18T12:04:07.507Z,60.18
2019-04-18T12:05:07.734Z,60.38
2019-04-18T12:06:07.946Z,59.99
2019-04-18T12:07:07.724Z,60.28
2019-04-18T12:08:07.931Z,60.09
2019-04-18T12:09:07.713Z,60.09
2019-04-18T12:10:08.065Z,60.09
2019-04-18T12:11:09.818Z,60.09
2019-04-18T12:12:07.845Z,59.99
2019-04-18T12:13:07.949Z,60.28
2019-04-18T12:14:08.065Z,60.47
2019-04-18T12:15:07.884Z,59.99
2019-04-18T12:16:08.518Z,59.99
2019-04-18T12:17:08.291Z,60.18
2019-04-18T12:18:11.910Z,60.09
2019-04-18T12:20:08.103Z,59.99
2019-04-18T12:21:08.240Z,59.99
2019-04-18T12:22:08.276Z,59.99
2019-04-18T12:23:11.015Z,60.09
2019-04-18T12:24:08.181Z,59.99
2019-04-18T12:25:09.754Z,59.80
2019-04-18T12:26:08.315Z,60.18
2019-04-18T12:27:08.286Z,59.99
2019-04-18T12:28:08.374Z,59.99
2019-04-18T12:30:08.630Z,59.89
2019-04-18T12:32:08.508Z,60.28
2019-04-18T12:34:08.825Z,59.89
2019-04-18T12:35:08.559Z,60.18
2019-04-18T12:36:08.718Z,59.89
2019-04-18T12:37:08.630Z,59.99
2019-04-18T12:38:08.716Z,60.09
2019-04-18T12:39:08.757Z,60.18
2019-04-18T12:40:08.739Z,59.83
2019-04-18T12:41:11.418Z,59.80
2019-04-18T12:42:08.856Z,59.89
2019-04-18T12:43:09.583Z,59.92
2019-04-18T12:44:08.873Z,59.92
2019-04-18T12:45:10.416Z,59.83
2019-04-18T12:46:09.005Z,59.92
2019-04-18T12:47:09.395Z,60.31
2019-04-18T12:48:09.378Z,59.92
2019-04-18T12:49:09.052Z,60.21
2019-04-18T12:50:09.085Z,59.92
2019-04-18T12:51:09.275Z,60.21
2019-04-18T12:52:13.941Z,60.21
2019-04-18T12:53:09.240Z,60.02
2019-04-18T12:54:09.273Z,59.99
2019-04-18T12:55:09.254Z,60.11
2019-04-18T12:56:09.292Z,60.02
2019-04-18T12:57:09.325Z,60.02
2019-04-18T12:58:12.461Z,60.02
2019-04-18T12:59:09.905Z,59.83
2019-04-18T13:00:09.728Z,59.83
2019-04-18T13:01:09.636Z,59.92
2019-04-18T13:02:10.267Z,59.92
2019-04-18T13:03:09.549Z,59.63
2019-04-18T13:04:09.620Z,59.63
2019-04-18T13:05:09.657Z,59.44
2019-04-18T13:06:09.997Z,59.63
2019-04-18T13:07:09.849Z,59.44
2019-04-18T13:08:09.762Z,59.44
2019-04-18T13:09:09.800Z,59.53
2019-04-18T13:10:09.836Z,59.83
2019-04-18T13:11:09.862Z,59.63
2019-04-18T13:12:10.300Z,59.15
2019-04-18T13:13:14.321Z,59.08
2019-04-18T13:14:10.346Z,58.80
2019-04-18T13:15:10.072Z,59.18
2019-04-18T13:16:09.999Z,58.50
2019-04-18T13:17:10.027Z,58.98
2019-04-18T13:18:10.064Z,58.70
2019-04-18T13:19:10.275Z,58.40
2019-04-18T13:20:10.195Z,58.21
2019-04-18T13:21:10.411Z,58.34
2019-04-18T13:22:10.259Z,57.82
2019-04-18T13:23:10.862Z,57.46
2019-04-18T13:25:10.334Z,57.56
2019-04-18T13:25:50.518Z,57.86
2019-04-18T13:26:10.461Z,57.56
2019-04-18T13:27:10.440Z,57.46
2019-04-18T13:28:10.445Z,57.28
2019-04-18T13:29:10.538Z,57.37
2019-04-18T13:31:10.600Z,57.28
2019-04-18T13:32:10.899Z,57.20
2019-04-18T13:33:10.626Z,56.72
2019-04-18T13:34:11.262Z,56.92
2019-04-18T13:35:10.747Z,56.52
2019-04-18T13:36:10.785Z,56.52
2019-04-18T13:37:11.415Z,56.34
2019-04-18T13:38:10.854Z,56.34
2019-04-18T13:39:11.275Z,56.34